• Join FlightAware (Why Join?)
  • Login
  • US Flag 
04:32AM EST


 

Airport Tracker/Info


-or-


 

Live Flight TrackerFlight Track Log ✈ SKW5564 ✈ 12-May-2013 ✈ KSFO - KLAS

Flight Track Log - Related Links

Times and Time Zones

All times are in EDT time to prevent confusion due to time zone crossing. See the SKW5564 flight status page for this flight to view local times or setup timezone preferences in your user account.

Time Position Orientation Groundspeed Altitude Reporting Facility
EDT Latitude Longitude Course Direction KTS MPH feet Rate Location/Type
04:04PM 37.6333 -122.4000 133° Southeast 140 161 1,200  Level Northern Cal TRACON
04:05PM 37.6500 -122.4500 293° West 207 238 3,100 2,100 Climbing Northern Cal TRACON
04:06PM 37.6833 -122.5333 297° West 270 311 5,400 2,640 Climbing Northern Cal TRACON
04:07PM 37.4493 -122.4145 113° Southeast  Level FlightAware Approximate
04:08PM 37.3961 -122.2858 130° Southeast  Level FlightAware Approximate
04:08PM 37.6167 -122.5500 191° South 269 310 8,700  Level Northern Cal TRACON
04:08PM 37.5514 -122.4997 149° Southeast 275 316 11,000 2,280 Climbing Oakland Center
04:09PM 37.3135 -122.1829 136° Southeast  Level FlightAware Approximate
04:09PM 37.5061 -122.4214 126° Southeast 296 341 13,300  Level Oakland Center
04:10PM 37.2402 -122.0702 133° Southeast  Level FlightAware Approximate
04:11PM 37.4831 -122.3094 105° East 330 380 15,400  Level Oakland Center
04:12PM 37.4561 -122.1950 106° East 341 392 17,600 1,980 Climbing Oakland Center
04:13PM 37.4292 -122.0750 106° East 354 407 19,500 1,800 Climbing Oakland Center
04:14PM 37.4006 -121.9511 106° East 367 422 21,300 1,800 Climbing Oakland Center
04:15PM 37.3708 -121.8247 106° East 376 433 23,200 1,740 Climbing Oakland Center
04:16PM 37.3400 -121.6919 106° East 385 443 24,900 1,560 Climbing Oakland Center
04:17PM 37.3092 -121.5558 106° East 402 463 26,400 1,620 Climbing Oakland Center
04:18PM 37.2697 -121.3925 107° East 408 470 28,200 1,500 Climbing Oakland Center
04:19PM 37.2367 -121.2536 107° East 416 479 29,500 1,200 Climbing Oakland Center
04:20PM 37.2033 -121.1131 107° East 420 483 30,700 1,080 Climbing Oakland Center
04:21PM 37.1683 -120.9689 107° East 432 497 31,800 1,080 Climbing Oakland Center
04:22PM 37.1344 -120.8239 106° East 434 499 33,000 540 Climbing Oakland Center
04:23PM 37.0956 -120.6761 108° East 448 516 33,000  Level Oakland Center
04:24PM 37.0597 -120.5239 106° East 454 522 33,000  Level Oakland Center
04:25PM 37.0244 -120.3736 106° East 453 521 33,000  Level Oakland Center
04:26PM 36.9856 -120.2264 108° East 450 518 33,000  Level Oakland Center
04:27PM 36.9442 -120.0583 107° East 443 510 33,000  Level Oakland Center
04:28PM 36.9089 -119.9106 107° East 445 512 33,000  Level Oakland Center
04:29PM 36.9117 -119.7544 89° East 453 521 33,000  Level Oakland Center
04:30PM 36.9564 -119.6117 69° East 441 507 33,000  Level Oakland Center
04:31PM 37.0044 -119.4722 67° East 436 502 33,000  Level Oakland Center
04:32PM 37.0528 -119.3342 66° East 433 498 33,000  Level Oakland Center
04:33PM 37.0989 -119.1961 67° East 429 494 33,000  Level Oakland Center
04:34PM 37.1328 -119.0183 77° East 436 502 33,000  Level Oakland Center
04:35PM 37.1600 -118.8711 77° East 435 501 33,000  Level Oakland Center
04:36PM 37.1836 -118.7239 79° East 432 497 33,000  Level Oakland Center
04:37PM 37.2100 -118.5758 77° East 434 499 33,000  Level Oakland Center
04:38PM 37.2394 -118.4131 77° East 434 499 33,000  Level Oakland Center
04:39PM 37.2653 -118.2653 78° East 433 498 33,000  Level Oakland Center
04:40PM 37.2894 -118.1169 78° East 434 499 33,000  Level Oakland Center
04:41PM 37.3153 -117.9700 77° East 433 498 33,000  Level Oakland Center
04:42PM 37.3403 -117.8228 78° East 432 497 33,000  Level Oakland Center
04:43PM 37.3653 -117.6753 78° East 432 497 33,000  Level Oakland Center
04:44PM 37.3892 -117.5281 78° East 431 496 33,000  Level Oakland Center
04:45PM 37.3975 -117.3789 86° East 437 503 33,000  Level Oakland Center
04:46PM 37.3356 -117.2142 115° Southeast 447 514 33,000  Level Oakland Center
04:47PM 37.2367 -117.1158 142° Southeast 457 526 33,000  Level Oakland Center
04:48PM 37.1336 -117.0217 144° Southeast 455 524 33,000  Level Oakland Center
04:49PM 37.0408 -116.9150 137° Southeast 454 522 33,000  Level Oakland Center
04:50PM 36.9472 -116.8097 138° Southeast 452 520 33,000  Level Oakland Center
04:51PM 36.9281 -116.7886 139° Southeast 454 522 33,000 -1,560 Level Los Angeles Center
04:52PM 36.8331 -116.6825 138° Southeast 457 526 31,000 -2,400 Descending Los Angeles Center
04:53PM 36.7244 -116.5575 137° Southeast 444 511 28,000 -2,700 Descending Los Angeles Center
04:54PM 36.6375 -116.4614 138° Southeast 423 487 25,500 -2,400 Descending Los Angeles Center
04:55PM 36.5556 -116.3694 138° Southeast 401 461 23,100 -2,220 Descending Los Angeles Center
04:56PM 36.4725 -116.2758 138° Southeast 384 442 21,000 -1,980 Descending Los Angeles Center
04:57PM 36.4072 -116.1875 133° Southeast 373 429 19,100 -2,040 Descending Los Angeles Center
04:58PM 36.3289 -116.0800 132° Southeast 368 423 16,900 -2,160 Descending Los Angeles Center
04:58PM 36.3022 -116.0475 136° Southeast 367 422 16,100 -900 Descending Los Angeles Center
04:59PM 36.2639 -115.9872 128° Southeast 330 380 16,000 -60 Descending Los Angeles Center
05:00PM 36.2072 -115.9069 131° Southeast 309 356 16,000 -240 Level Los Angeles Center
05:01PM 36.1717 -115.8153 116° Southeast 308 354 15,600 -840 Descending Los Angeles Center
05:02PM 36.1397 -115.7167 112° Southeast 308 354 14,400 -1,200 Descending Los Angeles Center
05:03PM 36.1053 -115.6061 111° Southeast 307 353 13,100 -960 Descending Los Angeles Center
05:04PM 36.0797 -115.5258 111° Southeast 273 314 12,500 -1,020 Descending Los Angeles Center
05:05PM 36.0494 -115.4347 112° Southeast 257 296 11,200 -840 Descending Los Angeles Center
05:06PM 36.0297 -115.3536 107° East 251 289 10,800 -720 Descending Los Angeles Center
05:07PM 36.0228 -115.2814 97° East 250 288 9,900 -960 Descending Los Angeles Center
05:08PM 36.0167 -115.1931 95° East 238 274 9,000 -840 Descending Los Angeles Center
05:08PM 36.0156 -115.1714 94° East 241 277 8,900 -900 Descending Los Angeles Center
05:09PM 36.0131 -115.1172 93° East 244 281 8,200 -900 Descending Los Angeles Center
05:09PM 36.0106 -115.0889 96° East 241 277 8,000 -300 Descending Los Angeles Center
05:10PM 36.0075 -115.0419 95° East 194 223 7,900 -540 Descending Los Angeles Center
05:10PM 36.0056 -115.0186 96° East 215 247 7,500 -1,380 Descending Los Angeles Center
05:11PM 36.0031 -114.9717 94° East 198 228 6,400 -1,380 Descending Los Angeles Center
05:11PM 36.0033 -114.9514 89° East 202 232 6,100 -960 Descending Los Angeles Center